Главная страница
METAR-TAF:

METAR-TAF

Аэропорты :

Коутсвилл, Пенсильвания, США

широта: 39-58-44N, долгота: 075-51-56W, высота над уровнем моря: 201 м

Текущие метеонаблюдения

Эта сводка был подготовлена 15 минут назад, в 21:35 UTC
Ветер 8 Узел от южный, изменяющийся между юго-восточный и южный-юго-западный
Температура 7°C
Влажность 70%
Давление 1018 hPa
Видимость: 16.1 км
Отдельные облака на высоте 2800 фута
Рассеянная облачность на высоте 3800 фута
Рассеянная облачность на высоте 9000 фута

METAR: KMQS 232135Z AUTO 17008KT 140V210 10SM SCT028 BKN038 BKN090 07/02 A3005 RMK AO2

Время: 16:50 (21:50 UTC)


TAF: отсутствует

Метеонаблюдения и прогнозы для более 4000 аэропортов (сводки METAR и TAF).

Имеющиеся станции представлены на карте желтыми и красными точками.

Чтобы увидеть название станции, наведите на нее мышь.

Затем щелкните, чтобы увидеть метеонаблюдения и метеопрогнозы.

Управление картой: чтобы увеличить масштаб, щелкните зеленые кнопки с черным крестиком; чтобы уменьшить масштаб, щелкните зеленую кнопку с тире; для просмотра соседних карт щелкайте зеленые стрелки.


METAR-TAF: